sensor_id;sensor_type;location;lat;lon;timestamp;P1;durP1;ratioP1;P2;durP2;ratioP2
6979;SDS011;3530;52.832;10.680;2023-09-12T00:00:56;12.18;;;8.02;;
6979;SDS011;3530;52.832;10.680;2023-09-12T00:03:41;12.60;;;8.05;;
6979;SDS011;3530;52.832;10.680;2023-09-12T00:06:27;9.00;;;7.50;;
6979;SDS011;3530;52.832;10.680;2023-09-12T00:09:13;11.85;;;8.20;;
6979;SDS011;3530;52.832;10.680;2023-09-12T00:11:58;13.20;;;7.47;;
6979;SDS011;3530;52.832;10.680;2023-09-12T00:14:44;13.20;;;8.75;;
6979;SDS011;3530;52.832;10.680;2023-09-12T00:17:30;10.73;;;8.35;;
6979;SDS011;3530;52.832;10.680;2023-09-12T00:20:15;10.18;;;8.38;;
6979;SDS011;3530;52.832;10.680;2023-09-12T00:23:01;13.13;;;8.30;;
6979;SDS011;3530;52.832;10.680;2023-09-12T00:25:47;14.93;;;8.88;;
6979;SDS011;3530;52.832;10.680;2023-09-12T00:28:32;13.20;;;9.10;;
6979;SDS011;3530;52.832;10.680;2023-09-12T00:31:19;14.75;;;8.23;;
6979;SDS011;3530;52.832;10.680;2023-09-12T00:34:05;9.40;;;7.63;;
6979;SDS011;3530;52.832;10.680;2023-09-12T00:36:50;13.27;;;8.80;;
6979;SDS011;3530;52.832;10.680;2023-09-12T00:39:36;16.38;;;8.32;;
6979;SDS011;3530;52.832;10.680;2023-09-12T00:42:24;12.07;;;8.45;;
6979;SDS011;3530;52.832;10.680;2023-09-12T00:45:11;14.07;;;8.43;;
6979;SDS011;3530;52.832;10.680;2023-09-12T00:47:57;15.93;;;9.32;;
6979;SDS011;3530;52.832;10.680;2023-09-12T00:50:43;16.25;;;7.95;;
6979;SDS011;3530;52.832;10.680;2023-09-12T00:53:30;8.73;;;7.47;;
6979;SDS011;3530;52.832;10.680;2023-09-12T00:56:16;13.38;;;7.95;;
6979;SDS011;3530;52.832;10.680;2023-09-12T00:59:02;11.77;;;7.95;;
6979;SDS011;3530;52.832;10.680;2023-09-12T01:01:48;12.35;;;8.45;;
6979;SDS011;3530;52.832;10.680;2023-09-12T01:04:34;12.77;;;9.07;;
6979;SDS011;3530;52.832;10.680;2023-09-12T01:07:20;18.25;;;9.60;;
6979;SDS011;3530;52.832;10.680;2023-09-12T01:10:06;13.20;;;8.63;;
6979;SDS011;3530;52.832;10.680;2023-09-12T01:12:52;15.73;;;8.38;;
6979;SDS011;3530;52.832;10.680;2023-09-12T01:15:38;15.70;;;9.68;;
6979;SDS011;3530;52.832;10.680;2023-09-12T01:18:24;9.77;;;8.32;;
6979;SDS011;3530;52.832;10.680;2023-09-12T01:24:15;13.48;;;8.30;;
6979;SDS011;3530;52.832;10.680;2023-09-12T01:27:24;12.45;;;8.65;;
6979;SDS011;3530;52.832;10.680;2023-09-12T01:30:13;12.18;;;8.70;;
6979;SDS011;3530;52.832;10.680;2023-09-12T01:33:03;11.63;;;8.13;;
6979;SDS011;3530;52.832;10.680;2023-09-12T01:35:49;16.83;;;7.97;;
6979;SDS011;3530;52.832;10.680;2023-09-12T01:38:34;11.95;;;8.32;;
6979;SDS011;3530;52.832;10.680;2023-09-12T01:41:20;10.95;;;8.15;;
6979;SDS011;3530;52.832;10.680;2023-09-12T01:44:06;11.98;;;8.45;;
6979;SDS011;3530;52.832;10.680;2023-09-12T01:46:54;9.60;;;8.02;;
6979;SDS011;3530;52.832;10.680;2023-09-12T01:49:42;12.18;;;8.45;;
6979;SDS011;3530;52.832;10.680;2023-09-12T01:52:30;9.82;;;7.47;;
6979;SDS011;3530;52.832;10.680;2023-09-12T01:55:16;10.20;;;8.00;;
6979;SDS011;3530;52.832;10.680;2023-09-12T01:58:02;14.63;;;8.23;;
6979;SDS011;3530;52.832;10.680;2023-09-12T02:00:48;11.98;;;8.25;;
6979;SDS011;3530;52.832;10.680;2023-09-12T02:03:33;11.02;;;9.18;;
6979;SDS011;3530;52.832;10.680;2023-09-12T02:06:19;10.32;;;8.32;;
6979;SDS011;3530;52.832;10.680;2023-09-12T02:09:05;10.63;;;8.70;;
6979;SDS011;3530;52.832;10.680;2023-09-12T02:11:50;10.60;;;7.60;;
6979;SDS011;3530;52.832;10.680;2023-09-12T02:14:36;11.75;;;8.77;;
6979;SDS011;3530;52.832;10.680;2023-09-12T02:17:23;11.38;;;8.27;;
6979;SDS011;3530;52.832;10.680;2023-09-12T02:20:09;12.63;;;9.45;;
6979;SDS011;3530;52.832;10.680;2023-09-12T02:22:54;11.70;;;8.02;;
6979;SDS011;3530;52.832;10.680;2023-09-12T02:25:40;12.02;;;7.88;;
6979;SDS011;3530;52.832;10.680;2023-09-12T02:28:26;11.32;;;8.45;;
6979;SDS011;3530;52.832;10.680;2023-09-12T02:31:11;11.05;;;8.57;;
6979;SDS011;3530;52.832;10.680;2023-09-12T02:33:57;12.40;;;7.97;;
6979;SDS011;3530;52.832;10.680;2023-09-12T02:36:43;9.70;;;8.35;;
6979;SDS011;3530;52.832;10.680;2023-09-12T02:39:28;10.35;;;8.52;;
6979;SDS011;3530;52.832;10.680;2023-09-12T02:42:14;12.02;;;8.63;;
6979;SDS011;3530;52.832;10.680;2023-09-12T02:45:00;12.20;;;8.48;;
6979;SDS011;3530;52.832;10.680;2023-09-12T02:47:45;8.80;;;7.97;;
6979;SDS011;3530;52.832;10.680;2023-09-12T02:50:31;10.55;;;8.18;;
6979;SDS011;3530;52.832;10.680;2023-09-12T02:53:17;13.50;;;8.82;;
6979;SDS011;3530;52.832;10.680;2023-09-12T02:56:03;11.00;;;9.15;;
6979;SDS011;3530;52.832;10.680;2023-09-12T02:58:49;13.43;;;8.38;;
6979;SDS011;3530;52.832;10.680;2023-09-12T03:01:34;11.38;;;8.05;;
6979;SDS011;3530;52.832;10.680;2023-09-12T03:04:20;14.75;;;8.40;;
6979;SDS011;3530;52.832;10.680;2023-09-12T03:07:06;11.32;;;8.68;;
6979;SDS011;3530;52.832;10.680;2023-09-12T03:09:51;10.65;;;7.50;;
6979;SDS011;3530;52.832;10.680;2023-09-12T03:12:37;13.52;;;8.35;;
6979;SDS011;3530;52.832;10.680;2023-09-12T03:15:23;13.05;;;8.45;;
6979;SDS011;3530;52.832;10.680;2023-09-12T03:18:09;12.07;;;8.38;;
6979;SDS011;3530;52.832;10.680;2023-09-12T03:20:55;8.15;;;7.28;;
6979;SDS011;3530;52.832;10.680;2023-09-12T03:23:40;13.50;;;8.00;;
6979;SDS011;3530;52.832;10.680;2023-09-12T03:26:26;12.23;;;8.18;;
6979;SDS011;3530;52.832;10.680;2023-09-12T03:29:12;13.57;;;8.77;;
6979;SDS011;3530;52.832;10.680;2023-09-12T03:31:57;10.27;;;8.63;;
6979;SDS011;3530;52.832;10.680;2023-09-12T03:34:43;10.90;;;8.45;;
6979;SDS011;3530;52.832;10.680;2023-09-12T03:37:29;12.93;;;9.25;;
6979;SDS011;3530;52.832;10.680;2023-09-12T03:40:15;11.57;;;8.88;;
6979;SDS011;3530;52.832;10.680;2023-09-12T03:43:00;15.60;;;9.55;;
6979;SDS011;3530;52.832;10.680;2023-09-12T03:45:46;12.98;;;8.65;;
6979;SDS011;3530;52.832;10.680;2023-09-12T03:48:32;11.77;;;7.88;;
6979;SDS011;3530;52.832;10.680;2023-09-12T03:51:21;10.95;;;9.43;;
6979;SDS011;3530;52.832;10.680;2023-09-12T03:54:07;12.38;;;8.73;;
6979;SDS011;3530;52.832;10.680;2023-09-12T03:56:52;9.70;;;7.60;;
6979;SDS011;3530;52.832;10.680;2023-09-12T03:59:38;10.30;;;8.75;;
6979;SDS011;3530;52.832;10.680;2023-09-12T04:02:24;13.95;;;9.75;;
6979;SDS011;3530;52.832;10.680;2023-09-12T04:05:09;12.32;;;8.75;;
6979;SDS011;3530;52.832;10.680;2023-09-12T04:07:55;14.05;;;10.00;;
6979;SDS011;3530;52.832;10.680;2023-09-12T04:10:41;12.52;;;9.70;;
6979;SDS011;3530;52.832;10.680;2023-09-12T04:13:27;11.50;;;10.30;;
6979;SDS011;3530;52.832;10.680;2023-09-12T04:16:13;13.38;;;9.00;;
6979;SDS011;3530;52.832;10.680;2023-09-12T04:18:58;10.95;;;9.32;;
6979;SDS011;3530;52.832;10.680;2023-09-12T04:21:44;10.40;;;8.52;;
6979;SDS011;3530;52.832;10.680;2023-09-12T04:24:30;13.88;;;9.38;;
6979;SDS011;3530;52.832;10.680;2023-09-12T04:27:15;9.23;;;8.25;;
6979;SDS011;3530;52.832;10.680;2023-09-12T04:30:01;12.20;;;9.73;;
6979;SDS011;3530;52.832;10.680;2023-09-12T04:32:47;15.18;;;10.90;;
6979;SDS011;3530;52.832;10.680;2023-09-12T04:35:36;10.95;;;8.55;;
6979;SDS011;3530;52.832;10.680;2023-09-12T04:38:21;10.30;;;7.88;;
6979;SDS011;3530;52.832;10.680;2023-09-12T04:41:11;12.85;;;8.65;;
6979;SDS011;3530;52.832;10.680;2023-09-12T04:44:00;11.25;;;9.20;;
6979;SDS011;3530;52.832;10.680;2023-09-12T04:46:47;9.38;;;8.25;;
6979;SDS011;3530;52.832;10.680;2023-09-12T04:49:33;13.00;;;8.60;;
6979;SDS011;3530;52.832;10.680;2023-09-12T04:52:19;8.88;;;7.97;;
6979;SDS011;3530;52.832;10.680;2023-09-12T04:55:05;8.82;;;7.90;;
6979;SDS011;3530;52.832;10.680;2023-09-12T04:57:51;13.68;;;8.63;;
6979;SDS011;3530;52.832;10.680;2023-09-12T05:00:38;10.52;;;8.60;;
6979;SDS011;3530;52.832;10.680;2023-09-12T05:03:25;10.95;;;9.82;;
6979;SDS011;3530;52.832;10.680;2023-09-12T05:06:11;9.63;;;8.23;;
6979;SDS011;3530;52.832;10.680;2023-09-12T05:08:57;9.13;;;7.97;;
6979;SDS011;3530;52.832;10.680;2023-09-12T05:11:43;9.65;;;7.63;;
6979;SDS011;3530;52.832;10.680;2023-09-12T05:14:29;9.57;;;7.20;;
6979;SDS011;3530;52.832;10.680;2023-09-12T05:17:15;6.75;;;6.15;;
6979;SDS011;3530;52.832;10.680;2023-09-12T05:20:01;6.90;;;6.03;;
6979;SDS011;3530;52.832;10.680;2023-09-12T05:22:47;9.50;;;5.40;;
6979;SDS011;3530;52.832;10.680;2023-09-12T05:25:33;7.25;;;4.97;;
6979;SDS011;3530;52.832;10.680;2023-09-12T05:28:18;7.22;;;5.00;;
6979;SDS011;3530;52.832;10.680;2023-09-12T05:31:04;8.02;;;5.22;;
6979;SDS011;3530;52.832;10.680;2023-09-12T05:33:50;5.53;;;4.78;;
6979;SDS011;3530;52.832;10.680;2023-09-12T05:36:35;6.20;;;4.93;;
6979;SDS011;3530;52.832;10.680;2023-09-12T05:39:21;6.95;;;5.00;;
6979;SDS011;3530;52.832;10.680;2023-09-12T05:42:07;6.07;;;4.55;;
6979;SDS011;3530;52.832;10.680;2023-09-12T05:44:52;5.72;;;5.05;;
6979;SDS011;3530;52.832;10.680;2023-09-12T05:47:41;6.45;;;4.60;;
6979;SDS011;3530;52.832;10.680;2023-09-12T05:50:27;6.63;;;4.47;;
6979;SDS011;3530;52.832;10.680;2023-09-12T05:53:13;7.03;;;5.03;;
6979;SDS011;3530;52.832;10.680;2023-09-12T05:55:58;5.38;;;4.60;;
6979;SDS011;3530;52.832;10.680;2023-09-12T05:58:44;8.50;;;5.80;;
6979;SDS011;3530;52.832;10.680;2023-09-12T06:01:29;5.53;;;4.25;;
6979;SDS011;3530;52.832;10.680;2023-09-12T06:04:15;6.80;;;4.65;;
6979;SDS011;3530;52.832;10.680;2023-09-12T06:07:04;6.30;;;4.70;;
6979;SDS011;3530;52.832;10.680;2023-09-12T06:09:49;6.93;;;5.03;;
6979;SDS011;3530;52.832;10.680;2023-09-12T06:12:35;5.93;;;5.22;;
6979;SDS011;3530;52.832;10.680;2023-09-12T06:15:21;5.65;;;4.55;;
6979;SDS011;3530;52.832;10.680;2023-09-12T06:18:07;5.82;;;4.65;;
6979;SDS011;3530;52.832;10.680;2023-09-12T06:20:52;6.35;;;5.80;;
6979;SDS011;3530;52.832;10.680;2023-09-12T06:23:38;5.38;;;4.88;;
6979;SDS011;3530;52.832;10.680;2023-09-12T06:26:24;4.90;;;4.45;;
6979;SDS011;3530;52.832;10.680;2023-09-12T06:29:09;5.28;;;4.78;;
6979;SDS011;3530;52.832;10.680;2023-09-12T06:31:55;6.78;;;4.90;;
6979;SDS011;3530;52.832;10.680;2023-09-12T06:34:42;9.20;;;5.20;;
6979;SDS011;3530;52.832;10.680;2023-09-12T06:37:27;5.18;;;4.50;;
6979;SDS011;3530;52.832;10.680;2023-09-12T06:40:13;6.85;;;4.93;;
6979;SDS011;3530;52.832;10.680;2023-09-12T06:42:58;5.13;;;4.72;;
6979;SDS011;3530;52.832;10.680;2023-09-12T06:45:45;8.50;;;5.45;;
6979;SDS011;3530;52.832;10.680;2023-09-12T06:48:30;6.75;;;4.70;;
6979;SDS011;3530;52.832;10.680;2023-09-12T06:51:16;5.43;;;4.22;;
6979;SDS011;3530;52.832;10.680;2023-09-12T06:54:02;5.65;;;4.43;;
6979;SDS011;3530;52.832;10.680;2023-09-12T06:56:48;5.22;;;4.75;;
6979;SDS011;3530;52.832;10.680;2023-09-12T06:59:34;6.53;;;4.85;;
6979;SDS011;3530;52.832;10.680;2023-09-12T07:02:20;4.93;;;4.53;;
6979;SDS011;3530;52.832;10.680;2023-09-12T07:05:07;4.50;;;4.10;;
6979;SDS011;3530;52.832;10.680;2023-09-12T07:07:52;6.82;;;4.88;;
6979;SDS011;3530;52.832;10.680;2023-09-12T07:10:43;6.68;;;4.28;;
6979;SDS011;3530;52.832;10.680;2023-09-12T07:13:31;4.40;;;4.00;;
6979;SDS011;3530;52.832;10.680;2023-09-12T07:16:17;3.67;;;3.38;;
6979;SDS011;3530;52.832;10.680;2023-09-12T07:19:03;4.95;;;3.67;;
6979;SDS011;3530;52.832;10.680;2023-09-12T07:21:48;5.32;;;3.72;;
6979;SDS011;3530;52.832;10.680;2023-09-12T07:24:34;3.25;;;2.97;;
6979;SDS011;3530;52.832;10.680;2023-09-12T07:27:20;5.70;;;3.45;;
6979;SDS011;3530;52.832;10.680;2023-09-12T07:30:06;4.20;;;3.40;;
6979;SDS011;3530;52.832;10.680;2023-09-12T07:32:52;4.15;;;3.40;;
6979;SDS011;3530;52.832;10.680;2023-09-12T07:35:38;4.63;;;3.55;;
6979;SDS011;3530;52.832;10.680;2023-09-12T07:38:24;3.65;;;3.30;;
6979;SDS011;3530;52.832;10.680;2023-09-12T07:41:10;4.47;;;3.55;;
6979;SDS011;3530;52.832;10.680;2023-09-12T07:43:55;5.45;;;3.58;;
6979;SDS011;3530;52.832;10.680;2023-09-12T07:46:41;3.45;;;2.78;;
6979;SDS011;3530;52.832;10.680;2023-09-12T07:49:27;6.22;;;3.33;;
6979;SDS011;3530;52.832;10.680;2023-09-12T07:52:13;4.10;;;3.03;;
6979;SDS011;3530;52.832;10.680;2023-09-12T07:54:59;3.60;;;3.25;;
6979;SDS011;3530;52.832;10.680;2023-09-12T07:57:45;5.03;;;3.60;;
6979;SDS011;3530;52.832;10.680;2023-09-12T08:00:31;6.90;;;3.20;;
6979;SDS011;3530;52.832;10.680;2023-09-12T08:03:17;3.70;;;3.40;;
6979;SDS011;3530;52.832;10.680;2023-09-12T08:06:03;7.05;;;3.55;;
6979;SDS011;3530;52.832;10.680;2023-09-12T08:08:48;4.20;;;3.53;;
6979;SDS011;3530;52.832;10.680;2023-09-12T08:11:34;5.82;;;3.20;;
6979;SDS011;3530;52.832;10.680;2023-09-12T08:14:20;3.40;;;3.10;;
6979;SDS011;3530;52.832;10.680;2023-09-12T08:17:06;4.70;;;3.70;;
6979;SDS011;3530;52.832;10.680;2023-09-12T08:19:52;3.90;;;3.15;;
6979;SDS011;3530;52.832;10.680;2023-09-12T08:22:37;3.50;;;3.20;;
6979;SDS011;3530;52.832;10.680;2023-09-12T08:25:24;3.55;;;3.13;;
6979;SDS011;3530;52.832;10.680;2023-09-12T08:28:10;3.00;;;2.80;;
6979;SDS011;3530;52.832;10.680;2023-09-12T08:30:55;3.38;;;2.90;;
6979;SDS011;3530;52.832;10.680;2023-09-12T08:33:41;4.32;;;3.17;;
6979;SDS011;3530;52.832;10.680;2023-09-12T08:36:27;5.10;;;3.53;;
6979;SDS011;3530;52.832;10.680;2023-09-12T08:39:16;3.45;;;3.17;;
6979;SDS011;3530;52.832;10.680;2023-09-12T08:42:03;5.53;;;3.22;;
6979;SDS011;3530;52.832;10.680;2023-09-12T08:44:49;7.38;;;3.85;;
6979;SDS011;3530;52.832;10.680;2023-09-12T08:47:34;4.00;;;3.30;;
6979;SDS011;3530;52.832;10.680;2023-09-12T08:50:21;3.60;;;3.30;;
6979;SDS011;3530;52.832;10.680;2023-09-12T08:53:08;5.78;;;4.20;;
6979;SDS011;3530;52.832;10.680;2023-09-12T08:55:54;4.22;;;3.30;;
6979;SDS011;3530;52.832;10.680;2023-09-12T08:58:40;3.40;;;3.08;;
6979;SDS011;3530;52.832;10.680;2023-09-12T09:01:25;5.03;;;3.95;;
6979;SDS011;3530;52.832;10.680;2023-09-12T09:04:14;4.53;;;3.53;;
6979;SDS011;3530;52.832;10.680;2023-09-12T09:07:00;7.38;;;4.15;;
6979;SDS011;3530;52.832;10.680;2023-09-12T09:09:46;4.25;;;3.85;;
6979;SDS011;3530;52.832;10.680;2023-09-12T09:12:33;5.00;;;4.13;;
6979;SDS011;3530;52.832;10.680;2023-09-12T09:15:20;4.53;;;4.13;;
6979;SDS011;3530;52.832;10.680;2023-09-12T09:18:11;6.35;;;4.88;;
6979;SDS011;3530;52.832;10.680;2023-09-12T09:20:57;5.18;;;4.65;;
6979;SDS011;3530;52.832;10.680;2023-09-12T09:23:46;8.63;;;5.05;;
6979;SDS011;3530;52.832;10.680;2023-09-12T09:26:41;5.75;;;4.88;;
6979;SDS011;3530;52.832;10.680;2023-09-12T09:29:28;5.65;;;4.93;;
6979;SDS011;3530;52.832;10.680;2023-09-12T09:32:18;5.45;;;4.97;;
6979;SDS011;3530;52.832;10.680;2023-09-12T09:35:07;5.32;;;3.72;;
6979;SDS011;3530;52.832;10.680;2023-09-12T09:37:53;5.10;;;4.07;;
6979;SDS011;3530;52.832;10.680;2023-09-12T09:40:39;6.40;;;4.53;;
6979;SDS011;3530;52.832;10.680;2023-09-12T09:43:25;6.18;;;5.22;;
6979;SDS011;3530;52.832;10.680;2023-09-12T09:46:15;5.65;;;5.15;;
6979;SDS011;3530;52.832;10.680;2023-09-12T09:49:01;6.53;;;5.43;;
6979;SDS011;3530;52.832;10.680;2023-09-12T09:51:47;5.78;;;5.18;;
6979;SDS011;3530;52.832;10.680;2023-09-12T09:54:32;6.22;;;5.03;;
6979;SDS011;3530;52.832;10.680;2023-09-12T09:57:18;5.68;;;5.10;;
6979;SDS011;3530;52.832;10.680;2023-09-12T10:00:04;6.55;;;5.32;;
6979;SDS011;3530;52.832;10.680;2023-09-12T10:02:54;6.47;;;5.43;;
6979;SDS011;3530;52.832;10.680;2023-09-12T10:05:40;5.82;;;5.00;;
6979;SDS011;3530;52.832;10.680;2023-09-12T10:08:27;5.30;;;4.40;;
6979;SDS011;3530;52.832;10.680;2023-09-12T10:11:14;5.03;;;4.60;;
6979;SDS011;3530;52.832;10.680;2023-09-12T10:14:04;6.00;;;4.30;;
6979;SDS011;3530;52.832;10.680;2023-09-12T10:16:51;4.22;;;3.78;;
6979;SDS011;3530;52.832;10.680;2023-09-12T10:19:43;4.28;;;3.83;;
6979;SDS011;3530;52.832;10.680;2023-09-12T10:22:38;4.78;;;4.38;;
6979;SDS011;3530;52.832;10.680;2023-09-12T10:25:26;4.63;;;4.25;;
6979;SDS011;3530;52.832;10.680;2023-09-12T10:28:13;4.13;;;3.80;;
6979;SDS011;3530;52.832;10.680;2023-09-12T10:30:59;3.85;;;3.55;;
6979;SDS011;3530;52.832;10.680;2023-09-12T10:33:46;4.22;;;3.83;;
6979;SDS011;3530;52.832;10.680;2023-09-12T10:36:33;5.43;;;4.00;;
6979;SDS011;3530;52.832;10.680;2023-09-12T10:39:21;4.00;;;3.70;;
6979;SDS011;3530;52.832;10.680;2023-09-12T10:42:08;3.85;;;3.55;;
6979;SDS011;3530;52.832;10.680;2023-09-12T10:44:54;4.13;;;3.83;;
6979;SDS011;3530;52.832;10.680;2023-09-12T10:47:40;6.07;;;3.67;;
6979;SDS011;3530;52.832;10.680;2023-09-12T10:50:26;3.63;;;3.33;;
6979;SDS011;3530;52.832;10.680;2023-09-12T10:53:13;3.67;;;3.38;;
6979;SDS011;3530;52.832;10.680;2023-09-12T10:56:14;4.70;;;3.90;;
6979;SDS011;3530;52.832;10.680;2023-09-12T11:01:51;4.18;;;3.88;;
6979;SDS011;3530;52.832;10.680;2023-09-12T11:04:37;4.63;;;3.38;;
6979;SDS011;3530;52.832;10.680;2023-09-12T11:10:21;6.70;;;4.53;;
6979;SDS011;3530;52.832;10.680;2023-09-12T11:13:07;4.30;;;3.80;;
6979;SDS011;3530;52.832;10.680;2023-09-12T11:16:15;4.53;;;4.00;;
6979;SDS011;3530;52.832;10.680;2023-09-12T11:19:19;4.53;;;3.90;;
6979;SDS011;3530;52.832;10.680;2023-09-12T11:22:20;4.47;;;4.07;;
6979;SDS011;3530;52.832;10.680;2023-09-12T11:25:24;4.32;;;3.97;;
6979;SDS011;3530;52.832;10.680;2023-09-12T11:28:13;4.03;;;3.63;;
6979;SDS011;3530;52.832;10.680;2023-09-12T11:30:59;6.35;;;3.85;;
6979;SDS011;3530;52.832;10.680;2023-09-12T11:33:44;4.15;;;3.75;;
6979;SDS011;3530;52.832;10.680;2023-09-12T11:36:30;4.53;;;4.13;;
6979;SDS011;3530;52.832;10.680;2023-09-12T11:39:23;4.32;;;3.92;;
6979;SDS011;3530;52.832;10.680;2023-09-12T11:42:14;4.10;;;3.80;;
6979;SDS011;3530;52.832;10.680;2023-09-12T11:44:59;5.35;;;4.13;;
6979;SDS011;3530;52.832;10.680;2023-09-12T11:47:45;4.50;;;4.10;;
6979;SDS011;3530;52.832;10.680;2023-09-12T11:50:32;4.63;;;3.95;;
6979;SDS011;3530;52.832;10.680;2023-09-12T11:53:20;4.63;;;4.10;;
6979;SDS011;3530;52.832;10.680;2023-09-12T11:56:07;6.68;;;4.38;;
6979;SDS011;3530;52.832;10.680;2023-09-12T11:58:53;5.28;;;4.30;;
6979;SDS011;3530;52.832;10.680;2023-09-12T12:01:40;3.92;;;3.63;;
6979;SDS011;3530;52.832;10.680;2023-09-12T12:04:26;5.05;;;4.45;;
6979;SDS011;3530;52.832;10.680;2023-09-12T12:07:12;3.92;;;3.63;;
6979;SDS011;3530;52.832;10.680;2023-09-12T12:09:58;3.47;;;3.25;;
6979;SDS011;3530;52.832;10.680;2023-09-12T12:12:44;5.20;;;4.13;;
6979;SDS011;3530;52.832;10.680;2023-09-12T12:15:31;4.07;;;3.78;;
6979;SDS011;3530;52.832;10.680;2023-09-12T12:18:17;4.90;;;4.07;;
6979;SDS011;3530;52.832;10.680;2023-09-12T12:21:03;4.80;;;4.35;;
6979;SDS011;3530;52.832;10.680;2023-09-12T12:23:57;5.00;;;4.40;;
6979;SDS011;3530;52.832;10.680;2023-09-12T12:26:43;5.00;;;4.53;;
6979;SDS011;3530;52.832;10.680;2023-09-12T12:29:29;4.35;;;3.97;;
6979;SDS011;3530;52.832;10.680;2023-09-12T12:32:16;4.07;;;3.78;;
6979;SDS011;3530;52.832;10.680;2023-09-12T12:35:01;6.32;;;4.07;;
6979;SDS011;3530;52.832;10.680;2023-09-12T12:37:48;4.78;;;4.13;;
6979;SDS011;3530;52.832;10.680;2023-09-12T12:40:37;5.40;;;4.30;;
6979;SDS011;3530;52.832;10.680;2023-09-12T12:43:25;4.55;;;4.15;;
6979;SDS011;3530;52.832;10.680;2023-09-12T12:46:12;6.13;;;4.68;;
6979;SDS011;3530;52.832;10.680;2023-09-12T12:48:58;5.88;;;4.45;;
6979;SDS011;3530;52.832;10.680;2023-09-12T12:51:44;5.50;;;4.20;;
6979;SDS011;3530;52.832;10.680;2023-09-12T12:54:33;5.22;;;4.50;;
6979;SDS011;3530;52.832;10.680;2023-09-12T12:57:19;5.97;;;4.22;;
6979;SDS011;3530;52.832;10.680;2023-09-12T13:00:09;6.32;;;4.57;;
6979;SDS011;3530;52.832;10.680;2023-09-12T13:02:59;6.80;;;5.18;;
6979;SDS011;3530;52.832;10.680;2023-09-12T13:05:44;8.07;;;4.55;;
6979;SDS011;3530;52.832;10.680;2023-09-12T13:08:30;4.70;;;4.30;;
6979;SDS011;3530;52.832;10.680;2023-09-12T13:11:16;6.38;;;4.65;;
6979;SDS011;3530;52.832;10.680;2023-09-12T13:14:02;6.75;;;4.70;;
6979;SDS011;3530;52.832;10.680;2023-09-12T13:16:54;4.72;;;4.32;;
6979;SDS011;3530;52.832;10.680;2023-09-12T13:19:40;5.07;;;4.15;;
6979;SDS011;3530;52.832;10.680;2023-09-12T13:22:26;4.93;;;4.38;;
6979;SDS011;3530;52.832;10.680;2023-09-12T13:25:11;6.68;;;5.03;;
6979;SDS011;3530;52.832;10.680;2023-09-12T13:27:57;5.93;;;5.32;;
6979;SDS011;3530;52.832;10.680;2023-09-12T13:30:43;5.80;;;5.20;;
6979;SDS011;3530;52.832;10.680;2023-09-12T13:33:30;5.78;;;5.20;;
6979;SDS011;3530;52.832;10.680;2023-09-12T13:36:15;6.82;;;5.25;;
6979;SDS011;3530;52.832;10.680;2023-09-12T13:39:01;6.55;;;5.22;;
6979;SDS011;3530;52.832;10.680;2023-09-12T13:41:47;4.15;;;3.60;;
6979;SDS011;3530;52.832;10.680;2023-09-12T13:44:33;5.75;;;5.15;;
6979;SDS011;3530;52.832;10.680;2023-09-12T13:47:19;6.32;;;5.65;;
6979;SDS011;3530;52.832;10.680;2023-09-12T13:50:08;6.03;;;5.40;;
6979;SDS011;3530;52.832;10.680;2023-09-12T13:52:54;8.15;;;5.82;;
6979;SDS011;3530;52.832;10.680;2023-09-12T13:55:41;7.53;;;5.72;;
6979;SDS011;3530;52.832;10.680;2023-09-12T13:58:26;6.72;;;5.55;;
6979;SDS011;3530;52.832;10.680;2023-09-12T14:01:12;7.90;;;5.78;;
6979;SDS011;3530;52.832;10.680;2023-09-12T14:03:58;8.00;;;5.88;;
6979;SDS011;3530;52.832;10.680;2023-09-12T14:06:43;5.82;;;4.97;;
6979;SDS011;3530;52.832;10.680;2023-09-12T14:09:29;7.05;;;6.35;;
6979;SDS011;3530;52.832;10.680;2023-09-12T14:12:15;5.90;;;5.30;;
6979;SDS011;3530;52.832;10.680;2023-09-12T14:15:01;5.65;;;5.05;;
6979;SDS011;3530;52.832;10.680;2023-09-12T14:17:48;8.18;;;6.40;;
6979;SDS011;3530;52.832;10.680;2023-09-12T14:20:34;7.55;;;6.05;;
6979;SDS011;3530;52.832;10.680;2023-09-12T14:23:19;6.43;;;5.75;;
6979;SDS011;3530;52.832;10.680;2023-09-12T14:26:06;6.20;;;5.45;;
6979;SDS011;3530;52.832;10.680;2023-09-12T14:28:52;7.63;;;6.13;;
6979;SDS011;3530;52.832;10.680;2023-09-12T14:31:37;7.97;;;6.35;;
6979;SDS011;3530;52.832;10.680;2023-09-12T14:34:24;6.43;;;5.80;;
6979;SDS011;3530;52.832;10.680;2023-09-12T14:37:12;6.05;;;5.53;;
6979;SDS011;3530;52.832;10.680;2023-09-12T14:39:58;8.43;;;6.30;;
6979;SDS011;3530;52.832;10.680;2023-09-12T14:42:44;6.20;;;5.05;;
6979;SDS011;3530;52.832;10.680;2023-09-12T14:45:30;5.70;;;5.15;;
6979;SDS011;3530;52.832;10.680;2023-09-12T14:48:16;6.15;;;5.35;;
6979;SDS011;3530;52.832;10.680;2023-09-12T14:51:02;5.35;;;4.85;;
6979;SDS011;3530;52.832;10.680;2023-09-12T14:53:47;5.40;;;4.97;;
6979;SDS011;3530;52.832;10.680;2023-09-12T14:56:33;7.00;;;4.90;;
6979;SDS011;3530;52.832;10.680;2023-09-12T14:59:19;5.30;;;4.82;;
6979;SDS011;3530;52.832;10.680;2023-09-12T15:02:05;4.88;;;4.38;;
6979;SDS011;3530;52.832;10.680;2023-09-12T15:04:51;4.80;;;4.40;;
6979;SDS011;3530;52.832;10.680;2023-09-12T15:07:37;4.75;;;4.35;;
6979;SDS011;3530;52.832;10.680;2023-09-12T15:10:24;5.57;;;4.55;;
6979;SDS011;3530;52.832;10.680;2023-09-12T15:13:09;4.75;;;4.32;;
6979;SDS011;3530;52.832;10.680;2023-09-12T15:15:56;5.03;;;4.57;;
6979;SDS011;3530;52.832;10.680;2023-09-12T15:18:42;5.43;;;4.50;;
6979;SDS011;3530;52.832;10.680;2023-09-12T15:21:27;4.93;;;4.53;;
6979;SDS011;3530;52.832;10.680;2023-09-12T15:24:13;6.70;;;4.40;;
6979;SDS011;3530;52.832;10.680;2023-09-12T15:26:59;4.97;;;4.55;;
6979;SDS011;3530;52.832;10.680;2023-09-12T15:29:45;5.55;;;4.32;;
6979;SDS011;3530;52.832;10.680;2023-09-12T15:32:30;4.32;;;3.80;;
6979;SDS011;3530;52.832;10.680;2023-09-12T15:35:16;4.25;;;3.92;;
6979;SDS011;3530;52.832;10.680;2023-09-12T15:38:02;5.45;;;4.50;;
6979;SDS011;3530;52.832;10.680;2023-09-12T15:40:48;4.07;;;3.70;;
6979;SDS011;3530;52.832;10.680;2023-09-12T15:43:33;3.97;;;3.67;;
6979;SDS011;3530;52.832;10.680;2023-09-12T15:46:20;4.18;;;3.78;;
6979;SDS011;3530;52.832;10.680;2023-09-12T15:49:07;4.65;;;3.97;;
6979;SDS011;3530;52.832;10.680;2023-09-12T15:51:52;4.32;;;4.00;;
6979;SDS011;3530;52.832;10.680;2023-09-12T15:54:38;4.68;;;4.05;;
6979;SDS011;3530;52.832;10.680;2023-09-12T15:57:24;5.35;;;4.38;;
6979;SDS011;3530;52.832;10.680;2023-09-12T16:00:10;4.15;;;3.67;;
6979;SDS011;3530;52.832;10.680;2023-09-12T16:02:56;5.07;;;4.55;;
6979;SDS011;3530;52.832;10.680;2023-09-12T16:05:42;6.22;;;4.40;;
6979;SDS011;3530;52.832;10.680;2023-09-12T16:08:27;4.07;;;3.70;;
6979;SDS011;3530;52.832;10.680;2023-09-12T16:11:13;4.88;;;4.47;;
6979;SDS011;3530;52.832;10.680;2023-09-12T16:14:00;3.85;;;3.55;;
6979;SDS011;3530;52.832;10.680;2023-09-12T16:16:46;4.60;;;3.72;;
6979;SDS011;3530;52.832;10.680;2023-09-12T16:19:33;3.92;;;3.63;;
6979;SDS011;3530;52.832;10.680;2023-09-12T16:22:18;4.00;;;3.70;;
6979;SDS011;3530;52.832;10.680;2023-09-12T16:25:04;3.83;;;3.53;;
6979;SDS011;3530;52.832;10.680;2023-09-12T16:27:50;6.13;;;3.78;;
6979;SDS011;3530;52.832;10.680;2023-09-12T16:30:36;4.25;;;3.95;;
6979;SDS011;3530;52.832;10.680;2023-09-12T16:33:23;4.45;;;4.05;;
6979;SDS011;3530;52.832;10.680;2023-09-12T16:36:08;5.25;;;4.50;;
6979;SDS011;3530;52.832;10.680;2023-09-12T16:38:54;4.40;;;4.00;;
6979;SDS011;3530;52.832;10.680;2023-09-12T16:41:40;4.47;;;4.07;;
6979;SDS011;3530;52.832;10.680;2023-09-12T16:44:26;4.80;;;3.63;;
6979;SDS011;3530;52.832;10.680;2023-09-12T16:47:12;4.07;;;3.78;;
6979;SDS011;3530;52.832;10.680;2023-09-12T16:49:57;6.97;;;4.50;;
6979;SDS011;3530;52.832;10.680;2023-09-12T16:52:43;4.40;;;3.72;;
6979;SDS011;3530;52.832;10.680;2023-09-12T16:55:29;4.22;;;3.92;;
6979;SDS011;3530;52.832;10.680;2023-09-12T16:58:14;5.95;;;4.47;;
6979;SDS011;3530;52.832;10.680;2023-09-12T17:01:00;4.28;;;3.85;;
6979;SDS011;3530;52.832;10.680;2023-09-12T17:03:45;4.95;;;4.55;;